sensor_id;sensor_type;location;lat;lon;timestamp;pressure;altitude;pressure_sealevel;temperature;humidity
64739;BME280;51175;51.186;0.276;2023-03-20T00:00:34;101543.75;;;15.01;62.81
64739;BME280;51175;51.186;0.276;2023-03-20T00:01:20;101540.28;;;15.01;63.10
64739;BME280;51175;51.186;0.276;2023-03-20T00:01:53;101534.97;;;15.01;62.59
64739;BME280;51175;51.186;0.276;2023-03-20T00:02:24;101534.19;;;15.00;63.01
64739;BME280;51175;51.186;0.276;2023-03-20T00:02:54;101525.41;;;15.00;62.81
64739;BME280;51175;51.186;0.276;2023-03-20T00:03:25;101540.28;;;15.01;62.94
64739;BME280;51175;51.186;0.276;2023-03-20T00:03:56;101545.59;;;15.01;63.01
64739;BME280;51175;51.186;0.276;2023-03-20T00:04:27;101539.75;;;14.99;62.82
64739;BME280;51175;51.186;0.276;2023-03-20T00:04:58;101537.91;;;14.99;63.13
64739;BME280;51175;51.186;0.276;2023-03-20T00:05:29;101532.56;;;14.99;62.61
64739;BME280;51175;51.186;0.276;2023-03-20T00:06:01;101529.91;;;14.99;62.76
64739;BME280;51175;51.186;0.276;2023-03-20T00:06:31;101529.91;;;14.99;62.97
64739;BME280;51175;51.186;0.276;2023-03-20T00:07:01;101533.38;;;15.00;62.82
64739;BME280;51175;51.186;0.276;2023-03-20T00:07:32;101532.56;;;14.99;62.91
64739;BME280;51175;51.186;0.276;2023-03-20T00:08:03;101540.28;;;15.01;63.02
64739;BME280;51175;51.186;0.276;2023-03-20T00:08:34;101538.69;;;15.00;62.81
64739;BME280;51175;51.186;0.276;2023-03-20T00:09:04;101533.38;;;15.00;62.78
64739;BME280;51175;51.186;0.276;2023-03-20T00:09:34;101541.38;;;15.00;62.82
64739;BME280;51175;51.186;0.276;2023-03-20T00:10:06;101527.25;;;14.99;62.94
64739;BME280;51175;51.186;0.276;2023-03-20T00:10:41;101532.56;;;14.99;63.01
64739;BME280;51175;51.186;0.276;2023-03-20T00:11:35;101529.09;;;14.99;62.91
64739;BME280;51175;51.186;0.276;2023-03-20T00:12:06;101523.00;;;14.98;62.71
64739;BME280;51175;51.186;0.276;2023-03-20T00:12:36;101519.53;;;14.98;62.90
64739;BME280;51175;51.186;0.276;2023-03-20T00:13:13;101527.53;;;14.98;62.95
64739;BME280;51175;51.186;0.276;2023-03-20T00:13:45;101528.31;;;14.98;62.77
64739;BME280;51175;51.186;0.276;2023-03-20T00:14:19;101519.53;;;14.98;63.05
64739;BME280;51175;51.186;0.276;2023-03-20T00:14:51;101516.06;;;14.97;62.77
64739;BME280;51175;51.186;0.276;2023-03-20T00:15:27;101517.16;;;14.96;62.90
64739;BME280;51175;51.186;0.276;2023-03-20T00:15:58;101518.72;;;14.97;62.94
64739;BME280;51175;51.186;0.276;2023-03-20T00:16:32;101525.94;;;14.97;62.74
64739;BME280;51175;51.186;0.276;2023-03-20T00:17:09;101522.47;;;14.96;63.00
64739;BME280;51175;51.186;0.276;2023-03-20T00:17:39;101521.66;;;14.96;63.14
64739;BME280;51175;51.186;0.276;2023-03-20T00:18:14;101518.22;;;14.95;62.83
64739;BME280;51175;51.186;0.276;2023-03-20T00:18:45;101525.13;;;14.96;62.91
64739;BME280;51175;51.186;0.276;2023-03-20T00:19:16;101520.63;;;14.97;62.81
64739;BME280;51175;51.186;0.276;2023-03-20T00:19:47;101519.00;;;14.96;63.07
64739;BME280;51175;51.186;0.276;2023-03-20T00:20:19;101518.22;;;14.95;63.06
64739;BME280;51175;51.186;0.276;2023-03-20T00:20:50;101526.19;;;14.95;62.95
64739;BME280;51175;51.186;0.276;2023-03-20T00:21:20;101522.72;;;14.95;63.00
64739;BME280;51175;51.186;0.276;2023-03-20T00:21:52;101518.22;;;14.95;63.01
64739;BME280;51175;51.186;0.276;2023-03-20T00:22:23;101522.72;;;14.95;63.01
64739;BME280;51175;51.186;0.276;2023-03-20T00:22:53;101520.06;;;14.95;63.01
64739;BME280;51175;51.186;0.276;2023-03-20T00:23:25;101517.41;;;14.95;63.03
64739;BME280;51175;51.186;0.276;2023-03-20T00:23:57;101514.75;;;14.95;62.85
64739;BME280;51175;51.186;0.276;2023-03-20T00:24:27;101512.09;;;14.95;62.73
64739;BME280;51175;51.186;0.276;2023-03-20T00:24:57;101526.19;;;14.95;62.89
64739;BME280;51175;51.186;0.276;2023-03-20T00:25:28;101521.91;;;14.94;62.87
64739;BME280;51175;51.186;0.276;2023-03-20T00:25:58;101517.41;;;14.95;62.79
64739;BME280;51175;51.186;0.276;2023-03-20T00:26:33;101516.59;;;14.94;62.79
64739;BME280;51175;51.186;0.276;2023-03-20T00:27:04;101512.34;;;14.93;62.95
64739;BME280;51175;51.186;0.276;2023-03-20T00:27:35;101507.84;;;14.94;62.88
64739;BME280;51175;51.186;0.276;2023-03-20T00:28:46;101515.00;;;14.93;62.82
64739;BME280;51175;51.186;0.276;2023-03-20T00:29:21;101505.44;;;14.92;62.96
64739;BME280;51175;51.186;0.276;2023-03-20T00:29:52;101511.81;;;14.91;62.74
64739;BME280;51175;51.186;0.276;2023-03-20T00:30:55;101511.03;;;14.91;62.84
64739;BME280;51175;51.186;0.276;2023-03-20T00:31:36;101517.13;;;14.91;62.94
64739;BME280;51175;51.186;0.276;2023-03-20T00:32:11;101518.19;;;14.90;62.91
64739;BME280;51175;51.186;0.276;2023-03-20T00:32:42;101520.06;;;14.89;62.89
64739;BME280;51175;51.186;0.276;2023-03-20T00:33:13;101523.53;;;14.90;62.93
64739;BME280;51175;51.186;0.276;2023-03-20T00:33:43;101516.34;;;14.91;63.19
64739;BME280;51175;51.186;0.276;2023-03-20T00:34:16;101518.19;;;14.90;62.86
64739;BME280;51175;51.186;0.276;2023-03-20T00:34:48;101521.94;;;14.89;63.02
64739;BME280;51175;51.186;0.276;2023-03-20T00:35:29;101517.38;;;14.89;63.12
64739;BME280;51175;51.186;0.276;2023-03-20T00:36:00;101519.28;;;14.89;62.95
64739;BME280;51175;51.186;0.276;2023-03-20T00:36:31;101520.84;;;14.90;62.85
64739;BME280;51175;51.186;0.276;2023-03-20T00:37:01;101520.06;;;14.89;62.86
64739;BME280;51175;51.186;0.276;2023-03-20T00:37:33;101519.28;;;14.89;63.12
64739;BME280;51175;51.186;0.276;2023-03-20T00:38:07;101515.00;;;14.88;62.88
64739;BME280;51175;51.186;0.276;2023-03-20T00:38:37;101524.59;;;14.89;62.80
64739;BME280;51175;51.186;0.276;2023-03-20T00:39:08;101525.63;;;14.88;63.04
64739;BME280;51175;51.186;0.276;2023-03-20T00:39:39;101515.81;;;14.88;63.05
64739;BME280;51175;51.186;0.276;2023-03-20T00:40:10;101522.97;;;14.88;62.88
64739;BME280;51175;51.186;0.276;2023-03-20T00:40:41;101514.22;;;14.87;63.20
64739;BME280;51175;51.186;0.276;2023-03-20T00:42:04;101520.56;;;14.86;62.96
64739;BME280;51175;51.186;0.276;2023-03-20T00:42:35;101514.47;;;14.86;63.12
64739;BME280;51175;51.186;0.276;2023-03-20T00:43:06;101513.66;;;14.85;62.97
64739;BME280;51175;51.186;0.276;2023-03-20T00:43:38;101503.03;;;14.85;63.31
64739;BME280;51175;51.186;0.276;2023-03-20T00:44:31;101503.84;;;14.86;63.10
64739;BME280;51175;51.186;0.276;2023-03-20T00:45:03;101510.19;;;14.85;62.91
64739;BME280;51175;51.186;0.276;2023-03-20T00:45:34;101505.69;;;14.85;62.90
64739;BME280;51175;51.186;0.276;2023-03-20T00:46:10;101507.53;;;14.85;63.21
64739;BME280;51175;51.186;0.276;2023-03-20T00:46:42;101508.34;;;14.85;62.91
64739;BME280;51175;51.186;0.276;2023-03-20T00:47:19;101510.47;;;14.83;63.17
64739;BME280;51175;51.186;0.276;2023-03-20T00:47:50;101509.44;;;14.84;63.16
64739;BME280;51175;51.186;0.276;2023-03-20T00:48:21;101510.47;;;14.83;63.09
64739;BME280;51175;51.186;0.276;2023-03-20T00:48:52;101509.69;;;14.83;63.06
64739;BME280;51175;51.186;0.276;2023-03-20T00:49:34;101521.91;;;14.84;63.10
64739;BME280;51175;51.186;0.276;2023-03-20T00:50:13;101515.78;;;14.83;63.14
64739;BME280;51175;51.186;0.276;2023-03-20T00:50:44;101513.38;;;14.82;63.24
64739;BME280;51175;51.186;0.276;2023-03-20T00:51:15;101522.19;;;14.82;63.12
64739;BME280;51175;51.186;0.276;2023-03-20T00:51:46;101519.50;;;14.82;63.12
64739;BME280;51175;51.186;0.276;2023-03-20T00:52:18;101520.59;;;14.81;62.96
64739;BME280;51175;51.186;0.276;2023-03-20T00:52:49;101518.72;;;14.82;63.05
64739;BME280;51175;51.186;0.276;2023-03-20T00:53:20;101518.72;;;14.82;62.97
64739;BME280;51175;51.186;0.276;2023-03-20T00:53:50;101512.59;;;14.81;63.02
64739;BME280;51175;51.186;0.276;2023-03-20T00:54:21;101513.38;;;14.82;63.21
64739;BME280;51175;51.186;0.276;2023-03-20T00:54:51;101517.94;;;14.81;63.35
64739;BME280;51175;51.186;0.276;2023-03-20T00:55:24;101517.13;;;14.81;63.13
64739;BME280;51175;51.186;0.276;2023-03-20T00:55:55;101512.59;;;14.81;63.05
64739;BME280;51175;51.186;0.276;2023-03-20T00:56:34;101509.94;;;14.81;62.90
64739;BME280;51175;51.186;0.276;2023-03-20T00:57:10;101513.66;;;14.80;63.00
64739;BME280;51175;51.186;0.276;2023-03-20T00:57:46;101511.00;;;14.80;63.03
64739;BME280;51175;51.186;0.276;2023-03-20T00:58:18;101511.00;;;14.80;63.25
64739;BME280;51175;51.186;0.276;2023-03-20T00:58:48;101514.47;;;14.81;63.23
64739;BME280;51175;51.186;0.276;2023-03-20T00:59:21;101518.97;;;14.80;63.16
64739;BME280;51175;51.186;0.276;2023-03-20T01:00:39;101510.22;;;14.80;62.84
64739;BME280;51175;51.186;0.276;2023-03-20T01:01:10;101517.38;;;14.79;63.24
64739;BME280;51175;51.186;0.276;2023-03-20T01:01:40;101513.09;;;14.78;63.01
64739;BME280;51175;51.186;0.276;2023-03-20T01:02:11;101515.75;;;14.78;63.19
64739;BME280;51175;51.186;0.276;2023-03-20T01:02:41;101517.38;;;14.79;63.14
64739;BME280;51175;51.186;0.276;2023-03-20T01:03:21;101515.53;;;14.80;63.12
64739;BME280;51175;51.186;0.276;2023-03-20T01:03:51;101520.84;;;14.80;63.24
64739;BME280;51175;51.186;0.276;2023-03-20T01:04:22;101518.44;;;14.78;63.13
64739;BME280;51175;51.186;0.276;2023-03-20T01:04:52;101513.88;;;14.78;63.20
64739;BME280;51175;51.186;0.276;2023-03-20T01:05:25;101510.44;;;14.78;63.10
64739;BME280;51175;51.186;0.276;2023-03-20T01:05:55;101510.44;;;14.78;63.13
64739;BME280;51175;51.186;0.276;2023-03-20T01:06:26;101518.44;;;14.78;63.23
64739;BME280;51175;51.186;0.276;2023-03-20T01:06:57;101506.97;;;14.77;63.01
64739;BME280;51175;51.186;0.276;2023-03-20T01:07:28;101510.44;;;14.78;63.14
64739;BME280;51175;51.186;0.276;2023-03-20T01:07:58;101509.63;;;14.77;62.99
64739;BME280;51175;51.186;0.276;2023-03-20T01:08:29;101507.78;;;14.78;63.34
64739;BME280;51175;51.186;0.276;2023-03-20T01:08:59;101509.63;;;14.77;62.97
64739;BME280;51175;51.186;0.276;2023-03-20T01:09:29;101507.78;;;14.78;62.98
64739;BME280;51175;51.186;0.276;2023-03-20T01:10:00;101504.31;;;14.77;62.93
64739;BME280;51175;51.186;0.276;2023-03-20T01:10:31;101514.97;;;14.77;63.00
64739;BME280;51175;51.186;0.276;2023-03-20T01:11:02;101506.97;;;14.77;63.02
64739;BME280;51175;51.186;0.276;2023-03-20T01:11:33;101506.16;;;14.77;63.06
64739;BME280;51175;51.186;0.276;2023-03-20T01:12:04;101506.16;;;14.77;63.13
64739;BME280;51175;51.186;0.276;2023-03-20T01:12:38;101506.16;;;14.77;62.95
64739;BME280;51175;51.186;0.276;2023-03-20T01:13:35;101513.38;;;14.76;63.07
64739;BME280;51175;51.186;0.276;2023-03-20T01:14:12;101510.72;;;14.76;62.89
64739;BME280;51175;51.186;0.276;2023-03-20T01:14:45;101504.59;;;14.76;63.10
64739;BME280;51175;51.186;0.276;2023-03-20T01:15:22;101509.91;;;14.76;63.17
64739;BME280;51175;51.186;0.276;2023-03-20T01:15:55;101501.13;;;14.75;63.20
64739;BME280;51175;51.186;0.276;2023-03-20T01:16:27;101512.56;;;14.76;63.22
64739;BME280;51175;51.186;0.276;2023-03-20T01:16:57;101506.44;;;14.75;63.08
64739;BME280;51175;51.186;0.276;2023-03-20T01:17:28;101509.91;;;14.76;62.99
64739;BME280;51175;51.186;0.276;2023-03-20T01:17:59;101512.56;;;14.76;63.04
64739;BME280;51175;51.186;0.276;2023-03-20T01:18:29;101509.91;;;14.76;63.22
64739;BME280;51175;51.186;0.276;2023-03-20T01:18:59;101509.91;;;14.76;62.94
64739;BME280;51175;51.186;0.276;2023-03-20T01:19:30;101510.72;;;14.76;63.18
64739;BME280;51175;51.186;0.276;2023-03-20T01:20:00;101512.56;;;14.76;63.19
64739;BME280;51175;51.186;0.276;2023-03-20T01:20:31;101510.72;;;14.76;63.05
64739;BME280;51175;51.186;0.276;2023-03-20T01:21:01;101514.41;;;14.75;63.04
64739;BME280;51175;51.186;0.276;2023-03-20T01:21:31;101510.97;;;14.75;63.13
64739;BME280;51175;51.186;0.276;2023-03-20T01:22:02;101512.56;;;14.76;62.98
64739;BME280;51175;51.186;0.276;2023-03-20T01:22:32;101514.41;;;14.75;63.20
64739;BME280;51175;51.186;0.276;2023-03-20T01:23:02;101500.34;;;14.75;63.20
64739;BME280;51175;51.186;0.276;2023-03-20T01:23:33;101511.75;;;14.75;63.14
64739;BME280;51175;51.186;0.276;2023-03-20T01:24:03;101505.66;;;14.75;63.26
64739;BME280;51175;51.186;0.276;2023-03-20T01:24:34;101510.16;;;14.74;62.92
64739;BME280;51175;51.186;0.276;2023-03-20T01:25:04;101508.31;;;14.75;63.17
64739;BME280;51175;51.186;0.276;2023-03-20T01:25:35;101503.25;;;14.73;63.08
64739;BME280;51175;51.186;0.276;2023-03-20T01:26:51;101507.75;;;14.73;63.37
64739;BME280;51175;51.186;0.276;2023-03-20T01:27:23;101502.44;;;14.73;63.06
64739;BME280;51175;51.186;0.276;2023-03-20T01:27:54;101508.84;;;14.72;63.10
64739;BME280;51175;51.186;0.276;2023-03-20T01:28:31;101502.44;;;14.73;62.99
64739;BME280;51175;51.186;0.276;2023-03-20T01:29:14;101498.97;;;14.72;62.95
64739;BME280;51175;51.186;0.276;2023-03-20T01:29:45;101506.19;;;14.72;63.14
64739;BME280;51175;51.186;0.276;2023-03-20T01:30:28;101501.13;;;14.70;63.39
64739;BME280;51175;51.186;0.276;2023-03-20T01:30:58;101497.41;;;14.71;63.36
64739;BME280;51175;51.186;0.276;2023-03-20T01:31:29;101507.22;;;14.71;63.16
64739;BME280;51175;51.186;0.276;2023-03-20T01:31:59;101510.13;;;14.69;63.27
64739;BME280;51175;51.186;0.276;2023-03-20T01:32:30;101503.78;;;14.70;63.08
64739;BME280;51175;51.186;0.276;2023-03-20T01:33:01;101509.38;;;14.69;63.13
64739;BME280;51175;51.186;0.276;2023-03-20T01:33:35;101508.28;;;14.70;63.08
64739;BME280;51175;51.186;0.276;2023-03-20T01:34:08;101505.91;;;14.68;63.26
64739;BME280;51175;51.186;0.276;2023-03-20T01:34:39;101503.25;;;14.68;63.37
64739;BME280;51175;51.186;0.276;2023-03-20T01:35:17;101504.31;;;14.67;63.20
64739;BME280;51175;51.186;0.276;2023-03-20T01:35:49;101516.53;;;14.68;63.25
64739;BME280;51175;51.186;0.276;2023-03-20T01:36:21;101508.00;;;14.66;63.32
64739;BME280;51175;51.186;0.276;2023-03-20T01:36:54;101514.13;;;14.67;63.15
64739;BME280;51175;51.186;0.276;2023-03-20T01:37:26;101508.00;;;14.66;63.29
64739;BME280;51175;51.186;0.276;2023-03-20T01:37:57;101503.50;;;14.67;63.17
64739;BME280;51175;51.186;0.276;2023-03-20T01:38:30;101507.19;;;14.65;63.31
64739;BME280;51175;51.186;0.276;2023-03-20T01:39:01;101506.97;;;14.67;63.34
64739;BME280;51175;51.186;0.276;2023-03-20T01:39:33;101514.94;;;14.67;63.03
64739;BME280;51175;51.186;0.276;2023-03-20T01:40:12;101510.41;;;14.68;63.14
64739;BME280;51175;51.186;0.276;2023-03-20T01:41:26;101503.50;;;14.67;63.35
64739;BME280;51175;51.186;0.276;2023-03-20T01:41:56;101505.34;;;14.66;63.08
64739;BME280;51175;51.186;0.276;2023-03-20T01:42:27;101502.69;;;14.66;63.29
64739;BME280;51175;51.186;0.276;2023-03-20T01:42:58;101503.50;;;14.67;63.20
64739;BME280;51175;51.186;0.276;2023-03-20T01:43:28;101511.47;;;14.67;63.10
64739;BME280;51175;51.186;0.276;2023-03-20T01:44:12;101506.16;;;14.67;63.26
64739;BME280;51175;51.186;0.276;2023-03-20T01:44:45;101501.88;;;14.65;63.23
64739;BME280;51175;51.186;0.276;2023-03-20T01:45:19;101505.34;;;14.66;63.10
64739;BME280;51175;51.186;0.276;2023-03-20T01:46:18;101508.81;;;14.67;63.32
64739;BME280;51175;51.186;0.276;2023-03-20T01:46:51;101509.09;;;14.65;63.22
64739;BME280;51175;51.186;0.276;2023-03-20T01:47:23;101503.75;;;14.65;63.25
64739;BME280;51175;51.186;0.276;2023-03-20T01:47:55;101510.13;;;14.64;63.35
64739;BME280;51175;51.186;0.276;2023-03-20T01:48:34;101506.69;;;14.63;63.21
64739;BME280;51175;51.186;0.276;2023-03-20T01:50:46;101505.88;;;14.63;63.31
64739;BME280;51175;51.186;0.276;2023-03-20T01:51:22;101508.78;;;14.61;63.19
64739;BME280;51175;51.186;0.276;2023-03-20T01:51:54;101509.59;;;14.62;63.21
64739;BME280;51175;51.186;0.276;2023-03-20T01:52:26;101510.38;;;14.62;63.40
64739;BME280;51175;51.186;0.276;2023-03-20T01:53:04;101503.47;;;14.61;63.45
64739;BME280;51175;51.186;0.276;2023-03-20T01:53:37;101502.66;;;14.61;63.17
64739;BME280;51175;51.186;0.276;2023-03-20T01:54:11;101510.66;;;14.61;63.26
64739;BME280;51175;51.186;0.276;2023-03-20T01:54:42;101507.22;;;14.60;63.42
64739;BME280;51175;51.186;0.276;2023-03-20T01:55:12;101501.09;;;14.60;63.14
64739;BME280;51175;51.186;0.276;2023-03-20T01:55:45;101504.56;;;14.60;63.26
64739;BME280;51175;51.186;0.276;2023-03-20T01:56:16;101495.75;;;14.60;63.51
64739;BME280;51175;51.186;0.276;2023-03-20T01:56:51;101499.22;;;14.60;63.32
64739;BME280;51175;51.186;0.276;2023-03-20T01:57:23;101500.00;;;14.61;63.24
64739;BME280;51175;51.186;0.276;2023-03-20T01:57:55;101500.00;;;14.61;63.25
64739;BME280;51175;51.186;0.276;2023-03-20T01:58:34;101500.81;;;14.61;63.26
64739;BME280;51175;51.186;0.276;2023-03-20T01:59:14;101497.34;;;14.61;63.35
64739;BME280;51175;51.186;0.276;2023-03-20T01:59:50;101496.56;;;14.60;63.28
64739;BME280;51175;51.186;0.276;2023-03-20T02:00:21;101501.09;;;14.60;63.40
64739;BME280;51175;51.186;0.276;2023-03-20T02:00:53;101496.56;;;14.60;63.23
64739;BME280;51175;51.186;0.276;2023-03-20T02:01:23;101500.00;;;14.61;63.43
64739;BME280;51175;51.186;0.276;2023-03-20T02:01:55;101493.91;;;14.60;63.36
64739;BME280;51175;51.186;0.276;2023-03-20T02:02:29;101493.91;;;14.60;63.22
64739;BME280;51175;51.186;0.276;2023-03-20T02:03:02;101494.69;;;14.61;63.31
64739;BME280;51175;51.186;0.276;2023-03-20T02:03:33;101491.25;;;14.60;63.38
64739;BME280;51175;51.186;0.276;2023-03-20T02:04:04;101490.44;;;14.60;63.23
64739;BME280;51175;51.186;0.276;2023-03-20T02:04:37;101494.94;;;14.59;63.38
64739;BME280;51175;51.186;0.276;2023-03-20T02:05:12;101493.09;;;14.60;63.36
64739;BME280;51175;51.186;0.276;2023-03-20T02:05:44;101495.75;;;14.60;63.16
64739;BME280;51175;51.186;0.276;2023-03-20T02:06:16;101505.31;;;14.61;63.46
64739;BME280;51175;51.186;0.276;2023-03-20T02:06:48;101487.78;;;14.60;63.47
64739;BME280;51175;51.186;0.276;2023-03-20T02:07:20;101492.28;;;14.59;63.44
64739;BME280;51175;51.186;0.276;2023-03-20T02:08:21;101486.97;;;14.59;63.43
64739;BME280;51175;51.186;0.276;2023-03-20T02:08:53;101488.06;;;14.58;63.07
64739;BME280;51175;51.186;0.276;2023-03-20T02:09:23;101494.19;;;14.59;63.21
64739;BME280;51175;51.186;0.276;2023-03-20T02:09:54;101493.63;;;14.57;63.33
64739;BME280;51175;51.186;0.276;2023-03-20T02:10:25;101491.78;;;14.57;63.44
64739;BME280;51175;51.186;0.276;2023-03-20T02:10:58;101490.97;;;14.57;63.24
64739;BME280;51175;51.186;0.276;2023-03-20T02:11:29;101490.97;;;14.57;63.48
64739;BME280;51175;51.186;0.276;2023-03-20T02:12:01;101491.78;;;14.57;63.07
64739;BME280;51175;51.186;0.276;2023-03-20T02:12:32;101490.72;;;14.58;63.44
64739;BME280;51175;51.186;0.276;2023-03-20T02:13:03;101490.16;;;14.56;63.24
64739;BME280;51175;51.186;0.276;2023-03-20T02:13:34;101486.72;;;14.56;63.30
64739;BME280;51175;51.186;0.276;2023-03-20T02:14:05;101495.47;;;14.56;63.43
64739;BME280;51175;51.186;0.276;2023-03-20T02:14:36;101493.63;;;14.57;63.30
64739;BME280;51175;51.186;0.276;2023-03-20T02:15:11;101492.81;;;14.56;63.51
64739;BME280;51175;51.186;0.276;2023-03-20T02:16:08;101492.81;;;14.56;63.26
64739;BME280;51175;51.186;0.276;2023-03-20T02:16:40;101494.69;;;14.56;63.47
64739;BME280;51175;51.186;0.276;2023-03-20T02:17:11;101488.56;;;14.55;63.22
64739;BME280;51175;51.186;0.276;2023-03-20T02:17:42;101489.38;;;14.56;63.48
64739;BME280;51175;51.186;0.276;2023-03-20T02:18:13;101489.38;;;14.56;63.38
64739;BME280;51175;51.186;0.276;2023-03-20T02:18:45;101485.91;;;14.55;63.50
64739;BME280;51175;51.186;0.276;2023-03-20T02:19:27;101483.25;;;14.55;63.41
64739;BME280;51175;51.186;0.276;2023-03-20T02:20:30;101482.44;;;14.55;63.35
64739;BME280;51175;51.186;0.276;2023-03-20T02:27:43;101481.66;;;14.49;63.58
64739;BME280;51175;51.186;0.276;2023-03-20T02:28:27;101482.47;;;14.49;63.38
64739;BME280;51175;51.186;0.276;2023-03-20T02:30:04;101477.41;;;14.48;63.59
64739;BME280;51175;51.186;0.276;2023-03-20T02:39:50;101464.63;;;14.39;63.71
64739;BME280;51175;51.186;0.276;2023-03-20T02:41:31;101461.97;;;14.39;63.90
64739;BME280;51175;51.186;0.276;2023-03-20T02:43:43;101454.25;;;14.38;64.05
64739;BME280;51175;51.186;0.276;2023-03-20T02:44:25;101452.41;;;14.38;63.82
64739;BME280;51175;51.186;0.276;2023-03-20T02:46:05;101455.84;;;14.39;63.71
64739;BME280;51175;51.186;0.276;2023-03-20T02:47:03;101461.16;;;14.39;63.81
64739;BME280;51175;51.186;0.276;2023-03-20T02:47:42;101456.09;;;14.37;63.82
64739;BME280;51175;51.186;0.276;2023-03-20T02:48:30;101456.09;;;14.37;63.72
64739;BME280;51175;51.186;0.276;2023-03-20T02:50:07;101450.00;;;14.37;63.82
64739;BME280;51175;51.186;0.276;2023-03-20T02:50:46;101448.38;;;14.36;64.00
64739;BME280;51175;51.186;0.276;2023-03-20T02:52:25;101446.53;;;14.36;63.72
64739;BME280;51175;51.186;0.276;2023-03-20T02:52:55;101446.00;;;14.34;63.72
64739;BME280;51175;51.186;0.276;2023-03-20T02:53:58;101444.13;;;14.35;63.94
64739;BME280;51175;51.186;0.276;2023-03-20T02:54:34;101436.16;;;14.35;63.86
64739;BME280;51175;51.186;0.276;2023-03-20T02:55:47;101441.47;;;14.35;63.93
64739;BME280;51175;51.186;0.276;2023-03-20T02:56:32;101443.34;;;14.34;64.09
64739;BME280;51175;51.186;0.276;2023-03-20T02:57:08;101444.13;;;14.35;63.74
64739;BME280;51175;51.186;0.276;2023-03-20T02:58:21;101440.69;;;14.34;63.81
64739;BME280;51175;51.186;0.276;2023-03-20T03:00:39;101430.03;;;14.34;63.97
64739;BME280;51175;51.186;0.276;2023-03-20T03:01:29;101438.03;;;14.34;63.74
64739;BME280;51175;51.186;0.276;2023-03-20T03:02:15;101435.34;;;14.34;63.90
64739;BME280;51175;51.186;0.276;2023-03-20T03:02:56;101431.94;;;14.34;64.03
64739;BME280;51175;51.186;0.276;2023-03-20T03:03:36;101434.59;;;14.34;63.87
64739;BME280;51175;51.186;0.276;2023-03-20T03:04:17;101429.25;;;14.34;63.82
64739;BME280;51175;51.186;0.276;2023-03-20T03:04:52;101437.25;;;14.34;64.16
64739;BME280;51175;51.186;0.276;2023-03-20T03:05:28;101431.13;;;14.33;63.62
64739;BME280;51175;51.186;0.276;2023-03-20T03:06:14;101427.66;;;14.33;63.90
64739;BME280;51175;51.186;0.276;2023-03-20T03:06:49;101434.59;;;14.34;63.77
64739;BME280;51175;51.186;0.276;2023-03-20T03:07:23;101431.94;;;14.34;63.94
64739;BME280;51175;51.186;0.276;2023-03-20T03:07:57;101430.03;;;14.34;63.82
64739;BME280;51175;51.186;0.276;2023-03-20T03:08:34;101430.03;;;14.34;63.90
64739;BME280;51175;51.186;0.276;2023-03-20T03:09:14;101434.59;;;14.34;64.01
64739;BME280;51175;51.186;0.276;2023-03-20T03:09:57;101428.19;;;14.35;63.81
64739;BME280;51175;51.186;0.276;2023-03-20T03:10:31;101425.81;;;14.33;64.11
64739;BME280;51175;51.186;0.276;2023-03-20T03:11:06;101430.03;;;14.34;63.88
64739;BME280;51175;51.186;0.276;2023-03-20T03:11:42;101423.16;;;14.33;63.85
64739;BME280;51175;51.186;0.276;2023-03-20T03:12:17;101423.94;;;14.34;63.76
64739;BME280;51175;51.186;0.276;2023-03-20T03:12:50;101426.59;;;14.34;64.14
64739;BME280;51175;51.186;0.276;2023-03-20T03:13:26;101426.59;;;14.34;63.76
64739;BME280;51175;51.186;0.276;2023-03-20T03:13:58;101419.41;;;14.34;63.69
64739;BME280;51175;51.186;0.276;2023-03-20T03:14:47;101423.94;;;14.34;63.88
64739;BME280;51175;51.186;0.276;2023-03-20T03:15:25;101420.50;;;14.33;63.79
64739;BME280;51175;51.186;0.276;2023-03-20T03:16:00;101425.00;;;14.33;63.74
64739;BME280;51175;51.186;0.276;2023-03-20T03:16:35;101427.66;;;14.33;63.86
64739;BME280;51175;51.186;0.276;2023-03-20T03:17:09;101428.47;;;14.33;63.77
64739;BME280;51175;51.186;0.276;2023-03-20T03:17:41;101427.38;;;14.34;63.88
64739;BME280;51175;51.186;0.276;2023-03-20T03:18:18;101427.38;;;14.34;63.63
64739;BME280;51175;51.186;0.276;2023-03-20T03:18:57;101419.69;;;14.33;63.74
64739;BME280;51175;51.186;0.276;2023-03-20T03:19:28;101419.69;;;14.33;63.78
64739;BME280;51175;51.186;0.276;2023-03-20T03:20:04;101428.19;;;14.35;63.71
64739;BME280;51175;51.186;0.276;2023-03-20T03:20:37;101425.81;;;14.33;63.92
64739;BME280;51175;51.186;0.276;2023-03-20T03:21:09;101423.16;;;14.33;63.70
64739;BME280;51175;51.186;0.276;2023-03-20T03:21:41;101423.16;;;14.33;63.85
64739;BME280;51175;51.186;0.276;2023-03-20T03:22:11;101420.50;;;14.33;63.81
64739;BME280;51175;51.186;0.276;2023-03-20T03:22:43;101420.22;;;14.35;63.78
64739;BME280;51175;51.186;0.276;2023-03-20T03:23:21;101417.56;;;14.35;63.89
64739;BME280;51175;51.186;0.276;2023-03-20T03:23:52;101423.69;;;14.35;63.90
64739;BME280;51175;51.186;0.276;2023-03-20T03:24:29;101423.69;;;14.35;63.69
64739;BME280;51175;51.186;0.276;2023-03-20T03:25:00;101419.41;;;14.34;63.82
64739;BME280;51175;51.186;0.276;2023-03-20T03:25:34;101425.53;;;14.35;63.75
64739;BME280;51175;51.186;0.276;2023-03-20T03:26:06;101420.22;;;14.35;63.75
64739;BME280;51175;51.186;0.276;2023-03-20T03:26:40;101420.22;;;14.35;63.82
64739;BME280;51175;51.186;0.276;2023-03-20T03:27:33;101416.75;;;14.34;63.85
64739;BME280;51175;51.186;0.276;2023-03-20T03:28:28;101414.09;;;14.34;63.79
64739;BME280;51175;51.186;0.276;2023-03-20T03:29:14;101423.94;;;14.34;63.82
64739;BME280;51175;51.186;0.276;2023-03-20T03:29:53;101420.50;;;14.33;63.56
64739;BME280;51175;51.186;0.276;2023-03-20T03:30:27;101424.19;;;14.32;63.89